createdAt,value
2022-07-28T00:00:17.512Z,100.00
2022-07-28T00:02:46.108Z,100.00
2022-07-28T00:05:14.062Z,100.00
2022-07-28T00:07:42.644Z,100.00
2022-07-28T00:10:14.454Z,100.00
2022-07-28T00:12:42.376Z,100.00
2022-07-28T00:15:11.457Z,100.00
2022-07-28T00:17:39.695Z,100.00
2022-07-28T00:20:09.827Z,100.00
2022-07-28T00:22:43.317Z,100.00
2022-07-28T00:25:11.949Z,100.00
2022-07-28T00:27:41.391Z,100.00
2022-07-28T00:30:10.862Z,100.00
2022-07-28T00:32:39.288Z,100.00
2022-07-28T00:35:08.766Z,100.00
2022-07-28T00:37:39.972Z,100.00
2022-07-28T00:40:09.777Z,100.00
2022-07-28T00:42:38.751Z,100.00
2022-07-28T00:45:09.444Z,100.00
2022-07-28T00:47:37.380Z,100.00
2022-07-28T00:50:06.915Z,100.00
2022-07-28T00:52:35.344Z,100.00
2022-07-28T00:55:05.162Z,100.00
2022-07-28T00:57:33.336Z,100.00
2022-07-28T01:00:01.520Z,100.00
2022-07-28T01:02:31.237Z,100.00
2022-07-28T01:04:59.547Z,100.00
2022-07-28T01:07:34.394Z,100.00
2022-07-28T01:10:09.827Z,100.00
2022-07-28T01:12:57.224Z,100.00
2022-07-28T01:15:31.823Z,100.00
2022-07-28T01:18:06.398Z,100.00
2022-07-28T01:20:38.689Z,100.00
2022-07-28T01:23:25.498Z,100.00
2022-07-28T01:26:07.689Z,100.00
2022-07-28T01:28:49.093Z,100.00
2022-07-28T01:31:26.435Z,100.00
2022-07-28T01:33:59.614Z,100.00
2022-07-28T01:36:33.233Z,100.00
2022-07-28T01:39:03.227Z,100.00
2022-07-28T01:41:35.602Z,100.00
2022-07-28T01:44:08.290Z,100.00
2022-07-28T01:46:40.309Z,100.00
2022-07-28T01:49:11.156Z,100.00
2022-07-28T01:51:40.165Z,100.00
2022-07-28T01:54:10.580Z,100.00
2022-07-28T01:56:40.994Z,100.00
2022-07-28T01:59:12.354Z,100.00
2022-07-28T02:01:45.624Z,100.00
2022-07-28T02:04:17.292Z,100.00
2022-07-28T02:06:48.029Z,100.00
2022-07-28T02:09:17.133Z,100.00
2022-07-28T02:11:48.136Z,100.00
2022-07-28T02:14:24.800Z,100.00
2022-07-28T02:16:59.531Z,100.00
2022-07-28T02:19:30.949Z,100.00
2022-07-28T02:21:59.142Z,100.00
2022-07-28T02:24:28.906Z,100.00
2022-07-28T02:27:00.970Z,100.00
2022-07-28T02:29:50.325Z,100.00
2022-07-28T02:32:28.616Z,100.00
2022-07-28T02:35:02.805Z,100.00
2022-07-28T02:37:37.035Z,100.00
2022-07-28T02:40:07.294Z,100.00
2022-07-28T02:42:37.921Z,100.00
2022-07-28T02:45:12.048Z,100.00
2022-07-28T02:47:47.114Z,100.00
2022-07-28T02:50:17.908Z,100.00
2022-07-28T02:52:47.633Z,100.00
2022-07-28T02:55:17.465Z,100.00
2022-07-28T02:57:47.245Z,100.00
2022-07-28T03:00:16.885Z,100.00
2022-07-28T03:02:47.268Z,100.00
2022-07-28T03:05:17.759Z,100.00
2022-07-28T03:07:51.272Z,100.00
2022-07-28T03:10:34.179Z,100.00
2022-07-28T03:13:12.590Z,100.00
2022-07-28T03:15:41.287Z,100.00
2022-07-28T03:18:10.826Z,100.00
2022-07-28T03:20:38.942Z,100.00
2022-07-28T03:23:08.254Z,100.00
2022-07-28T03:25:42.444Z,100.00
2022-07-28T03:28:15.247Z,100.00
2022-07-28T03:30:46.587Z,100.00
2022-07-28T03:33:16.882Z,100.00
2022-07-28T03:35:48.762Z,100.00
2022-07-28T03:38:30.801Z,100.00
2022-07-28T03:40:59.731Z,100.00
2022-07-28T03:43:28.747Z,100.00
2022-07-28T03:45:56.696Z,100.00
2022-07-28T03:48:31.659Z,100.00
2022-07-28T03:51:00.254Z,100.00
2022-07-28T03:53:29.709Z,100.00
2022-07-28T03:55:58.762Z,98.57
2022-07-28T03:58:28.938Z,97.87
2022-07-28T04:00:57.756Z,95.38
2022-07-28T04:03:42.821Z,94.08
2022-07-28T04:06:15.840Z,94.24
2022-07-28T04:08:44.026Z,92.40
2022-07-28T04:11:12.764Z,89.69
2022-07-28T04:13:42.592Z,87.68
2022-07-28T04:16:18.562Z,87.26
2022-07-28T04:18:47.177Z,87.38
2022-07-28T04:21:16.548Z,88.18
2022-07-28T04:23:44.563Z,88.31
2022-07-28T04:26:12.535Z,88.15
2022-07-28T04:28:40.780Z,88.02
2022-07-28T04:31:23.248Z,88.03
2022-07-28T04:33:51.449Z,87.31
2022-07-28T04:36:22.480Z,88.74
2022-07-28T04:38:50.510Z,87.84
2022-07-28T04:41:18.740Z,87.31
2022-07-28T04:43:46.655Z,88.51
2022-07-28T04:46:15.244Z,87.50
2022-07-28T04:48:44.023Z,87.29
2022-07-28T04:51:12.363Z,87.30
2022-07-28T04:53:41.657Z,83.03
2022-07-28T04:56:09.653Z,84.29
2022-07-28T04:58:39.090Z,83.57
2022-07-28T05:01:08.079Z,85.72
2022-07-28T05:03:36.599Z,84.94
2022-07-28T05:06:05.182Z,83.84
2022-07-28T05:08:33.304Z,79.98
2022-07-28T05:11:03.199Z,78.66
2022-07-28T05:13:34.585Z,79.92
2022-07-28T05:16:03.648Z,78.44
2022-07-28T05:18:31.682Z,77.27
2022-07-28T05:20:59.857Z,77.69
2022-07-28T05:23:27.846Z,80.08
2022-07-28T05:25:55.862Z,76.58
2022-07-28T05:28:25.592Z,75.34
2022-07-28T05:30:54.274Z,73.75
2022-07-28T05:33:23.055Z,73.49
2022-07-28T05:35:56.181Z,73.49
2022-07-28T05:38:26.339Z,75.07
2022-07-28T05:40:54.439Z,74.25
2022-07-28T05:43:22.671Z,76.20
2022-07-28T05:45:52.267Z,74.56
2022-07-28T05:48:21.072Z,74.70
2022-07-28T05:50:49.906Z,72.18
2022-07-28T05:53:19.585Z,73.50
2022-07-28T05:56:00.335Z,71.41
2022-07-28T05:58:29.803Z,72.51
2022-07-28T06:01:02.245Z,71.24
2022-07-28T06:03:32.297Z,70.68
2022-07-28T06:06:15.215Z,70.17
2022-07-28T06:08:45.939Z,71.59
2022-07-28T06:11:21.993Z,68.55
2022-07-28T06:13:53.659Z,71.30
2022-07-28T06:16:23.967Z,69.06
2022-07-28T06:18:52.794Z,69.50
2022-07-28T06:21:24.373Z,70.57
2022-07-28T06:23:52.342Z,70.17
2022-07-28T06:26:23.398Z,68.61
2022-07-28T06:28:54.333Z,69.80
2022-07-28T06:31:24.023Z,69.95
2022-07-28T06:33:52.204Z,68.52
2022-07-28T06:36:20.200Z,69.78
2022-07-28T06:38:48.108Z,66.43
2022-07-28T06:41:16.658Z,66.66
2022-07-28T06:43:45.740Z,66.62
2022-07-28T06:46:18.675Z,68.46
2022-07-28T06:48:48.615Z,64.32
2022-07-28T06:51:19.246Z,65.89
2022-07-28T06:53:48.675Z,64.35
2022-07-28T06:56:17.083Z,64.28
2022-07-28T06:58:47.286Z,67.67
2022-07-28T07:01:16.233Z,65.70
2022-07-28T07:03:45.715Z,67.13
2022-07-28T07:06:18.255Z,65.70
2022-07-28T07:08:49.440Z,64.96
2022-07-28T07:11:17.654Z,65.14
2022-07-28T07:13:47.557Z,65.00
2022-07-28T07:16:16.179Z,62.69
2022-07-28T07:18:44.278Z,64.73
2022-07-28T07:21:12.228Z,65.77
2022-07-28T07:23:41.994Z,62.73
2022-07-28T07:26:10.008Z,64.03
2022-07-28T07:28:38.959Z,62.16
2022-07-28T07:31:07.415Z,62.28
2022-07-28T07:33:35.784Z,61.58
2022-07-28T07:36:04.043Z,60.79
2022-07-28T07:38:32.218Z,60.11
2022-07-28T07:41:01.881Z,61.34
2022-07-28T07:43:30.210Z,63.01
2022-07-28T07:46:01.659Z,61.68
2022-07-28T07:48:29.832Z,61.47
2022-07-28T07:50:57.823Z,64.33
2022-07-28T07:53:26.461Z,62.69
2022-07-28T07:55:54.606Z,63.36
2022-07-28T07:58:24.169Z,60.39
2022-07-28T08:00:53.530Z,61.35
2022-07-28T08:03:22.594Z,59.93
2022-07-28T08:05:51.766Z,59.37
2022-07-28T08:08:20.326Z,58.90
2022-07-28T08:10:51.236Z,58.94
2022-07-28T08:13:23.230Z,58.54
2022-07-28T08:15:52.921Z,59.96
2022-07-28T08:18:21.464Z,59.49
2022-07-28T08:20:49.541Z,53.99
2022-07-28T08:23:21.561Z,52.84
2022-07-28T08:25:52.576Z,50.70
2022-07-28T08:28:20.548Z,52.31
2022-07-28T08:30:48.484Z,50.33
2022-07-28T08:33:21.981Z,51.26
2022-07-28T08:35:50.662Z,52.24
2022-07-28T08:38:18.708Z,50.77
2022-07-28T08:40:50.127Z,50.81
2022-07-28T08:43:27.220Z,52.32
2022-07-28T08:45:58.735Z,51.22
2022-07-28T08:48:31.050Z,50.98
2022-07-28T08:51:03.211Z,51.02
2022-07-28T08:53:32.918Z,50.64
2022-07-28T08:56:04.435Z,51.24
2022-07-28T08:58:42.071Z,49.95
2022-07-28T09:01:11.171Z,51.43
2022-07-28T09:03:41.071Z,51.83
2022-07-28T09:06:09.620Z,50.80
2022-07-28T09:08:38.866Z,50.38
2022-07-28T09:11:08.441Z,50.67
2022-07-28T09:13:36.891Z,51.73
2022-07-28T09:16:07.289Z,50.16
2022-07-28T09:18:36.651Z,50.01
2022-07-28T09:21:06.100Z,50.74
2022-07-28T09:23:44.756Z,50.29
2022-07-28T09:26:13.809Z,49.09
2022-07-28T09:28:53.168Z,48.77
2022-07-28T09:31:22.125Z,49.17
2022-07-28T09:34:00.507Z,49.48
2022-07-28T09:36:31.084Z,47.51
2022-07-28T09:38:59.333Z,49.34
2022-07-28T09:41:27.558Z,50.26
2022-07-28T09:43:56.094Z,47.79
2022-07-28T09:46:25.893Z,47.86
2022-07-28T09:48:58.070Z,48.71
2022-07-28T09:51:31.170Z,48.32
2022-07-28T09:54:11.430Z,48.56
2022-07-28T09:56:40.771Z,47.68
2022-07-28T09:59:09.397Z,47.51
2022-07-28T10:01:52.679Z,48.03
2022-07-28T10:04:34.124Z,48.70
2022-07-28T10:07:05.740Z,48.83
2022-07-28T10:09:34.666Z,48.23
2022-07-28T10:12:20.345Z,48.27
2022-07-28T10:15:37.408Z,48.08
2022-07-28T10:18:07.128Z,45.92
2022-07-28T10:20:35.653Z,46.98
2022-07-28T10:23:06.703Z,46.78
2022-07-28T10:25:36.834Z,45.10
2022-07-28T10:28:05.676Z,47.02
2022-07-28T10:30:41.666Z,46.93
2022-07-28T10:33:14.905Z,45.58
2022-07-28T10:35:54.242Z,46.01
2022-07-28T10:38:28.442Z,45.16
2022-07-28T10:40:59.673Z,46.22
2022-07-28T10:43:29.282Z,47.28
2022-07-28T10:46:07.468Z,45.98
2022-07-28T10:48:38.409Z,45.20
2022-07-28T10:51:06.986Z,45.77
2022-07-28T10:53:49.489Z,45.40
2022-07-28T10:56:26.754Z,47.03
2022-07-28T10:59:05.137Z,44.95
2022-07-28T11:01:53.611Z,44.47
2022-07-28T11:04:53.510Z,44.38
2022-07-28T11:07:22.433Z,44.72
2022-07-28T11:09:53.537Z,45.20
2022-07-28T11:12:49.949Z,45.49
2022-07-28T11:15:34.473Z,44.39
2022-07-28T11:18:05.909Z,43.64
2022-07-28T11:21:09.382Z,44.16
2022-07-28T11:23:56.026Z,44.72
2022-07-28T11:26:38.855Z,45.68
2022-07-28T11:29:23.738Z,44.62
2022-07-28T11:32:05.875Z,47.60
2022-07-28T11:35:09.334Z,44.22
2022-07-28T11:38:09.522Z,43.92
2022-07-28T11:40:43.145Z,44.80
2022-07-28T11:43:37.765Z,44.21
2022-07-28T11:46:35.010Z,44.86
2022-07-28T11:49:17.254Z,41.74
2022-07-28T11:52:10.075Z,42.81
2022-07-28T11:54:38.818Z,43.13
2022-07-28T11:57:10.001Z,42.96
2022-07-28T11:59:53.505Z,42.85
2022-07-28T12:02:27.902Z,42.61
2022-07-28T12:05:04.000Z,42.59
2022-07-28T12:07:38.382Z,44.19
2022-07-28T12:10:54.989Z,41.19
2022-07-28T12:13:29.052Z,42.33
2022-07-28T12:15:59.250Z,43.63
2022-07-28T12:18:27.318Z,41.90
2022-07-28T12:20:56.062Z,43.19
2022-07-28T12:23:34.907Z,42.67
2022-07-28T12:26:12.243Z,43.63
2022-07-28T12:28:40.556Z,41.20
2022-07-28T12:31:13.745Z,41.21
2022-07-28T12:33:41.998Z,41.26
2022-07-28T12:36:10.736Z,41.16
2022-07-28T12:38:38.967Z,41.57
2022-07-28T12:41:15.434Z,41.73
2022-07-28T12:43:51.385Z,40.18
2022-07-28T12:46:28.526Z,41.94
2022-07-28T12:48:57.662Z,40.52
2022-07-28T12:51:33.693Z,39.89
2022-07-28T12:54:01.802Z,40.32
2022-07-28T12:56:30.750Z,42.17
2022-07-28T12:59:06.611Z,40.29
2022-07-28T13:01:52.770Z,41.72
2022-07-28T13:04:59.393Z,43.00
2022-07-28T13:07:29.986Z,42.15
2022-07-28T13:10:04.514Z,42.48
2022-07-28T13:12:37.348Z,40.13
2022-07-28T13:15:17.215Z,39.76
2022-07-28T13:17:55.225Z,40.64
2022-07-28T13:20:24.272Z,39.66
2022-07-28T13:22:54.085Z,40.87
2022-07-28T13:25:22.616Z,41.39
2022-07-28T13:27:55.305Z,39.51
2022-07-28T13:30:24.052Z,40.44
2022-07-28T13:32:55.353Z,39.16
2022-07-28T13:35:23.729Z,39.27
2022-07-28T13:37:51.712Z,38.98
2022-07-28T13:40:20.124Z,39.77
2022-07-28T13:42:52.412Z,38.93
2022-07-28T13:45:23.748Z,38.49
2022-07-28T13:47:53.637Z,38.41
2022-07-28T13:50:22.125Z,41.56
2022-07-28T13:52:52.618Z,38.99
2022-07-28T13:55:21.960Z,39.41
2022-07-28T13:57:51.652Z,40.18
2022-07-28T14:00:21.120Z,40.44
2022-07-28T14:02:51.100Z,39.22
2022-07-28T14:05:22.144Z,38.78
2022-07-28T14:07:53.761Z,39.77
2022-07-28T14:10:26.623Z,39.02
2022-07-28T14:12:55.654Z,39.17
2022-07-28T14:15:23.747Z,39.04
2022-07-28T14:17:52.071Z,40.13
2022-07-28T14:20:21.603Z,39.43
2022-07-28T14:22:51.911Z,38.96
2022-07-28T14:25:21.536Z,40.71
2022-07-28T14:27:51.663Z,39.69
2022-07-28T14:30:20.771Z,39.36
2022-07-28T14:32:49.686Z,40.42
2022-07-28T14:35:17.817Z,41.05
2022-07-28T14:38:35.117Z,40.67
2022-07-28T14:40:39.492Z,41.29
2022-07-28T14:43:08.116Z,40.46
2022-07-28T14:45:51.210Z,41.07
2022-07-28T14:48:24.454Z,42.49
2022-07-28T14:50:55.507Z,41.77
2022-07-28T14:53:28.113Z,40.48
2022-07-28T14:55:56.479Z,41.12
2022-07-28T14:58:24.488Z,39.95
2022-07-28T15:00:52.595Z,39.66
2022-07-28T15:03:21.158Z,40.60
2022-07-28T15:05:50.126Z,40.42
2022-07-28T15:08:18.451Z,40.00
2022-07-28T15:10:51.263Z,39.70
2022-07-28T15:13:19.564Z,39.98
2022-07-28T15:15:48.131Z,39.60
2022-07-28T15:18:16.136Z,39.39
2022-07-28T15:20:49.457Z,39.83
2022-07-28T15:23:17.583Z,40.42
2022-07-28T15:25:47.460Z,39.61
2022-07-28T15:28:17.801Z,40.41
2022-07-28T15:30:52.779Z,38.91
2022-07-28T15:33:21.740Z,40.97
2022-07-28T15:35:57.927Z,39.89
2022-07-28T15:38:28.276Z,39.62
2022-07-28T15:40:58.775Z,40.27
2022-07-28T15:43:28.644Z,40.16
2022-07-28T15:45:57.622Z,40.52
2022-07-28T15:48:25.870Z,40.68
2022-07-28T15:50:53.812Z,38.85
2022-07-28T15:53:22.160Z,39.85
2022-07-28T15:55:51.630Z,41.26
2022-07-28T15:58:20.527Z,40.84
2022-07-28T16:00:50.124Z,40.52
2022-07-28T16:03:18.186Z,40.02
2022-07-28T16:05:49.634Z,39.60
2022-07-28T16:08:22.921Z,41.01
2022-07-28T16:10:52.911Z,39.94
2022-07-28T16:13:36.160Z,39.56
2022-07-28T16:16:08.565Z,38.14
2022-07-28T16:18:37.767Z,35.73
2022-07-28T16:21:06.918Z,32.90
2022-07-28T16:23:35.398Z,31.25
2022-07-28T16:26:05.206Z,31.48
2022-07-28T16:28:33.330Z,29.14
2022-07-28T16:31:01.403Z,30.08
2022-07-28T16:33:33.731Z,30.17
2022-07-28T16:36:02.362Z,30.13
2022-07-28T16:38:30.382Z,28.69
2022-07-28T16:40:59.159Z,27.54
2022-07-28T16:43:27.114Z,28.50
2022-07-28T16:45:59.952Z,28.62
2022-07-28T16:48:28.455Z,28.38
2022-07-28T16:50:57.986Z,28.20
2022-07-28T16:53:26.540Z,29.29
2022-07-28T16:55:54.737Z,26.70
2022-07-28T16:58:22.741Z,27.23
2022-07-28T17:00:50.966Z,27.77
2022-07-28T17:03:19.089Z,27.93
2022-07-28T17:05:48.342Z,27.45
2022-07-28T17:08:17.778Z,26.44
2022-07-28T17:10:47.353Z,27.19
2022-07-28T17:13:18.967Z,26.43
2022-07-28T17:15:47.059Z,27.94
2022-07-28T17:18:15.009Z,26.93
2022-07-28T17:20:46.982Z,27.31
2022-07-28T17:23:15.215Z,27.69
2022-07-28T17:28:32.946Z,28.03
2022-07-28T17:31:01.345Z,28.21
2022-07-28T17:33:31.229Z,28.27
2022-07-28T17:36:00.288Z,27.70
2022-07-28T17:38:33.051Z,28.42
2022-07-28T17:41:04.629Z,29.95
2022-07-28T17:43:33.123Z,30.56
2022-07-28T17:46:02.699Z,30.73
2022-07-28T17:48:36.573Z,30.91
2022-07-28T17:51:07.133Z,31.69
2022-07-28T17:53:39.200Z,32.95
2022-07-28T17:56:10.091Z,33.97
2022-07-28T17:58:38.446Z,34.64
2022-07-28T18:01:11.933Z,35.59
2022-07-28T18:03:58.556Z,34.13
2022-07-28T18:06:34.065Z,33.97
2022-07-28T18:09:07.050Z,34.06
2022-07-28T18:11:56.547Z,34.19
2022-07-28T18:14:28.714Z,33.73
2022-07-28T18:16:57.138Z,34.34
2022-07-28T18:19:25.243Z,34.10
2022-07-28T18:21:53.526Z,34.40
2022-07-28T18:24:23.111Z,34.51
2022-07-28T18:26:53.242Z,34.02
2022-07-28T18:29:22.167Z,33.98
2022-07-28T18:31:51.857Z,34.50
2022-07-28T18:34:24.600Z,34.43
2022-07-28T18:36:53.516Z,35.69
2022-07-28T18:39:21.818Z,36.97
2022-07-28T18:41:49.841Z,37.25
2022-07-28T18:44:20.243Z,37.65
2022-07-28T18:46:48.745Z,38.29
2022-07-28T18:49:18.796Z,38.81
2022-07-28T18:51:46.835Z,39.49
2022-07-28T18:54:20.111Z,40.50
2022-07-28T18:56:54.444Z,41.08
2022-07-28T18:59:24.458Z,41.26
2022-07-28T19:01:52.652Z,42.41
2022-07-28T19:04:21.375Z,45.72
2022-07-28T19:06:49.286Z,45.70
2022-07-28T19:09:17.565Z,46.71
2022-07-28T19:11:46.508Z,47.30
2022-07-28T19:14:15.848Z,49.28
2022-07-28T19:16:45.628Z,49.90
2022-07-28T19:19:14.739Z,50.57
2022-07-28T19:21:43.623Z,51.07
2022-07-28T19:24:13.859Z,52.45
2022-07-28T19:26:43.394Z,52.41
2022-07-28T19:29:11.431Z,53.07
2022-07-28T19:31:40.191Z,54.91
2022-07-28T19:34:09.801Z,55.90
2022-07-28T19:36:43.059Z,57.02
2022-07-28T19:39:13.371Z,58.02
2022-07-28T19:41:42.009Z,58.08
2022-07-28T19:44:12.182Z,58.08
2022-07-28T19:46:40.886Z,58.68
2022-07-28T19:49:12.098Z,59.34
2022-07-28T19:51:40.879Z,60.55
2022-07-28T19:54:09.376Z,61.22
2022-07-28T19:56:39.685Z,60.81
2022-07-28T19:59:08.222Z,62.93
2022-07-28T20:01:36.368Z,63.65
2022-07-28T20:04:16.254Z,65.09
2022-07-28T20:06:44.759Z,64.18
2022-07-28T20:09:12.830Z,65.30
2022-07-28T20:11:44.781Z,66.25
2022-07-28T20:14:14.234Z,65.30
2022-07-28T20:16:42.834Z,66.57
2022-07-28T20:19:18.235Z,67.47
2022-07-28T20:21:46.345Z,67.76
2022-07-28T20:24:16.414Z,67.43
2022-07-28T20:26:46.790Z,69.22
2022-07-28T20:29:14.768Z,69.30
2022-07-28T20:31:42.856Z,68.71
2022-07-28T20:34:13.393Z,70.82
2022-07-28T20:36:42.915Z,71.09
2022-07-28T20:39:27.919Z,70.40
2022-07-28T20:41:59.241Z,71.60
2022-07-28T20:44:29.240Z,72.16
2022-07-28T20:46:58.855Z,72.19
2022-07-28T20:49:28.365Z,74.55
2022-07-28T20:51:58.847Z,74.44
2022-07-28T20:54:27.441Z,74.54
2022-07-28T20:56:55.816Z,75.26
2022-07-28T20:59:27.700Z,75.36
2022-07-28T21:01:56.954Z,76.81
2022-07-28T21:04:25.307Z,77.16
2022-07-28T21:07:00.783Z,77.72
2022-07-28T21:09:32.154Z,77.28
2022-07-28T21:12:01.892Z,78.71
2022-07-28T21:14:32.380Z,78.63
2022-07-28T21:17:00.506Z,80.03
2022-07-28T21:19:28.742Z,79.69
2022-07-28T21:21:56.771Z,80.46
2022-07-28T21:24:29.049Z,81.18
2022-07-28T21:26:58.486Z,82.02
2022-07-28T21:32:03.715Z,83.58
2022-07-28T21:34:34.505Z,84.82
2022-07-28T21:37:03.095Z,84.68
2022-07-28T21:39:31.432Z,84.73
2022-07-28T21:42:02.847Z,85.30
2022-07-28T21:44:32.990Z,85.43
2022-07-28T21:47:00.960Z,85.64
2022-07-28T21:49:31.288Z,86.01
2022-07-28T21:52:00.033Z,86.31
2022-07-28T21:54:29.480Z,86.89
2022-07-28T21:56:58.226Z,86.90
2022-07-28T21:59:27.653Z,87.56
2022-07-28T22:01:55.695Z,87.87
2022-07-28T22:04:24.126Z,87.79
2022-07-28T22:06:54.096Z,89.14
2022-07-28T22:09:22.252Z,89.92
2022-07-28T22:11:50.814Z,90.96
2022-07-28T22:14:20.389Z,90.94
2022-07-28T22:16:49.976Z,91.36
2022-07-28T22:19:18.023Z,92.89
2022-07-28T22:21:46.001Z,93.56
2022-07-28T22:24:16.139Z,93.67
2022-07-28T22:26:44.487Z,93.37
2022-07-28T22:29:12.882Z,94.18
2022-07-28T22:31:41.174Z,95.39
2022-07-28T22:34:10.807Z,95.31
2022-07-28T22:36:39.642Z,96.46
2022-07-28T22:39:07.666Z,96.47
2022-07-28T22:41:42.957Z,96.63
2022-07-28T22:44:15.222Z,96.71
2022-07-28T22:46:44.161Z,96.51
2022-07-28T22:49:13.866Z,95.87
2022-07-28T22:51:46.354Z,96.89
2022-07-28T22:54:16.560Z,98.10
2022-07-28T22:56:45.119Z,97.56
2022-07-28T22:59:14.435Z,98.31
2022-07-28T23:01:46.107Z,99.16
2022-07-28T23:04:15.787Z,100.00
2022-07-28T23:06:43.962Z,100.00
2022-07-28T23:09:12.590Z,100.00
2022-07-28T23:11:40.954Z,100.00
2022-07-28T23:14:10.481Z,100.00
2022-07-28T23:16:39.386Z,100.00
2022-07-28T23:19:07.343Z,100.00
2022-07-28T23:21:39.577Z,100.00
2022-07-28T23:24:08.102Z,100.00
2022-07-28T23:26:36.133Z,100.00
2022-07-28T23:29:04.143Z,100.00
2022-07-28T23:31:32.887Z,100.00
2022-07-28T23:34:01.207Z,100.00
2022-07-28T23:36:29.229Z,100.00
2022-07-28T23:39:00.224Z,100.00
2022-07-28T23:41:29.327Z,100.00
2022-07-28T23:43:57.340Z,100.00
2022-07-28T23:46:31.776Z,100.00
2022-07-28T23:48:59.860Z,100.00
2022-07-28T23:51:46.870Z,100.00
2022-07-28T23:54:18.262Z,100.00
2022-07-28T23:56:47.296Z,100.00
2022-07-28T23:59:15.267Z,100.00
